Conquistador — WDE8212 — position and weather

sailwx.info

Track history (hours):
 
Tides and Currents Weather Stations Pressure Air Temp Water Temp Dewpoint Dewpoint Depression Visibility Wind Speed Wind Dir Waves Ship Positions

Conquistador

Owner: national facilities corp, Santa Monica, CA. More information available from US FCC via Universal Licensing System and Coast Guard Vessel Documentation Center.

Last reported at 2016-Aug-22 07:26 UTC. Time now 2016-Aug-26 03:14 UTC.
Position N 32°44' W 117°12'.

Length 22 m.

Type: Pleasure craft. MMSI: 367402860.

Date/timePositionNaut miles runAvg speedWind from/ knotsBaromVisibWave heightAir tempDewpointWater temp
2016-Aug-22 07:26N 32°44' W 117°12'0 0.0
2016-Aug-21 22:18N 32°44' W 117°12'0 0.0
2016-Aug-21 20:28N 32°44' W 117°12'0 0.0
2016-Aug-20 16:07N 32°44' W 117°12'0 0.0
2016-Aug-20 06:25N 32°44' W 117°12'0 0.0
2016-Aug-20 05:31N 32°44' W 117°12'0 0.0
2016-Aug-20 02:25N 32°44' W 117°12'0 0.0
2016-Aug-20 01:31N 32°44' W 117°12'0 0.0
2016-Aug-18 04:13N 32°44' W 117°12'0 0.0
2016-Aug-18 03:22N 32°44' W 117°12'0 0.0
2016-Aug-18 00:19N 32°44' W 117°12'0 0.0
2016-Aug-17 23:10N 32°44' W 117°12'0 0.0
2016-Aug-17 13:33N 32°44' W 117°12'0 0.0
2016-Aug-17 11:33N 32°44' W 117°12'0 0.0
2016-Aug-17 05:33N 32°44' W 117°12'0 0.0
2016-Aug-17 04:30N 32°44' W 117°12'0 0.0
2016-Aug-17 03:33N 32°44' W 117°12'0 0.0
2016-Aug-17 02:27N 32°44' W 117°12'0 0.0
2016-Aug-17 01:33N 32°44' W 117°12'0 0.0
2016-Aug-17 00:33N 32°44' W 117°12'0 0.0
2016-Aug-16 23:30N 32°44' W 117°12'0 0.0
2016-Aug-16 21:24N 32°44' W 117°12'0 0.0
2016-Aug-16 20:21N 32°44' W 117°12'0 0.0
2016-Aug-16 19:30N 32°44' W 117°12'0 0.0
2016-Aug-16 18:30N 32°44' W 117°12'0 0.0
2016-Aug-16 17:27N 32°44' W 117°12'0 0.0
2016-Aug-16 16:24N 32°44' W 117°12'0 0.0
2016-Aug-16 15:33N 32°44' W 117°12'0 0.0
2016-Aug-16 14:18N 32°44' W 117°12'0 0.0
2016-Aug-16 04:30N 32°44' W 117°12'0 0.0
2016-Aug-16 03:27N 32°44' W 117°12'0 0.0
2016-Aug-16 02:33N 32°44' W 117°12'0 0.0
2016-Aug-16 01:30N 32°44' W 117°12'0 0.0
2016-Aug-16 00:33N 32°44' W 117°12'0 0.0
2016-Aug-15 23:30N 32°44' W 117°12'0 0.0
2016-Aug-15 22:24N 32°44' W 117°12'0 0.0
2016-Aug-15 21:27N 32°44' W 117°12'0 0.0
2016-Aug-15 20:33N 32°44' W 117°12'0 0.0
2016-Aug-15 19:33N 32°44' W 117°12'0 0.0
2016-Aug-15 18:27N 32°44' W 117°12'0 0.0
2016-Aug-15 17:30N 32°44' W 117°12'0 0.0
2016-Aug-15 16:06N 32°44' W 117°12'0 0.0
2016-Aug-15 15:24N 32°44' W 117°12'0 0.0
2016-Aug-15 13:06N 32°44' W 117°12'0 0.0
2016-Aug-15 04:33N 32°44' W 117°12'0 0.0
2016-Aug-15 02:09N 32°44' W 117°12'0 0.0
2016-Aug-15 01:24N 32°44' W 117°12'0 0.0
2016-Aug-14 21:24N 32°44' W 117°12'0 0.0
2016-Aug-14 18:16N 32°44' W 117°12'0 0.0
2016-Aug-14 16:19N 32°44' W 117°12'0 0.0
2016-Aug-14 15:31N 32°44' W 117°12'0 0.0
2016-Aug-14 06:22N 32°44' W 117°12'0 0.0
2016-Aug-14 04:16N 32°44' W 117°12'0 0.0
2016-Aug-14 03:28N 32°44' W 117°12'0 0.0
2016-Aug-14 02:22N 32°44' W 117°12'0 0.0
2016-Aug-14 01:31N 32°44' W 117°12'9 4.4
2016-Aug-13 23:32N 32°39' W 117°21'1010.5
2016-Aug-13 22:33N 32°40' W 117°33'9 9.4
2016-Aug-13 21:33N 32°41' W 117°45'7 7.3
2016-Aug-13 20:33N 32°40' W 117°53'7 6.7
2016-Aug-13 19:32N 32°39' W 118°01'6 6.1
2016-Aug-13 18:33N 32°41' W 118°08'8 5.2
2016-Aug-13 17:06N 32°48' W 118°10'510.0
2016-Aug-13 16:33N 32°54' W 118°09'20 9.9
2016-Aug-13 14:32N 33°13' W 118°16'10 9.9
2016-Aug-13 13:30N 33°23' W 118°20'1 0.3
2016-Aug-13 09:25N 33°23' W 118°22'3 0.4
2016-Aug-13 02:24N 33°21' W 118°20'0 0.5
2016-Aug-13 01:20N 33°21' W 118°19'0 0.0
2016-Aug-13 00:16N 33°21' W 118°19'0 0.0
2016-Aug-12 17:33N 33°21' W 118°19'  
Track history (hours):
 
Tides and Currents Weather Stations Pressure Air Temp Water Temp Dewpoint Dewpoint Depression Visibility Wind Speed Wind Dir Waves Ship Positions

Conquistador

Owner: national facilities corp, Santa Monica, CA. More information available from US FCC via Universal Licensing System and Coast Guard Vessel Documentation Center.

Last reported at 2016-Aug-22 07:26 UTC. Time now 2016-Aug-26 03:14 UTC.
Position N 32°44' W 117°12'.

Length 22 m.

Type: Pleasure craft. MMSI: 367402860.

Date/timePositionNaut miles runAvg speedWind from/ knotsBaromVisibWave heightAir tempDewpointWater temp
2016-Aug-22 07:26N 32°44' W 117°12'0 0.0
2016-Aug-21 22:18N 32°44' W 117°12'0 0.0
2016-Aug-21 20:28N 32°44' W 117°12'0 0.0
2016-Aug-20 16:07N 32°44' W 117°12'0 0.0
2016-Aug-20 06:25N 32°44' W 117°12'0 0.0
2016-Aug-20 05:31N 32°44' W 117°12'0 0.0
2016-Aug-20 02:25N 32°44' W 117°12'0 0.0
2016-Aug-20 01:31N 32°44' W 117°12'0 0.0
2016-Aug-18 04:13N 32°44' W 117°12'0 0.0
2016-Aug-18 03:22N 32°44' W 117°12'0 0.0
2016-Aug-18 00:19N 32°44' W 117°12'0 0.0
2016-Aug-17 23:10N 32°44' W 117°12'0 0.0
2016-Aug-17 13:33N 32°44' W 117°12'0 0.0
2016-Aug-17 11:33N 32°44' W 117°12'0 0.0
2016-Aug-17 05:33N 32°44' W 117°12'0 0.0
2016-Aug-17 04:30N 32°44' W 117°12'0 0.0
2016-Aug-17 03:33N 32°44' W 117°12'0 0.0
2016-Aug-17 02:27N 32°44' W 117°12'0 0.0
2016-Aug-17 01:33N 32°44' W 117°12'0 0.0
2016-Aug-17 00:33N 32°44' W 117°12'0 0.0
2016-Aug-16 23:30N 32°44' W 117°12'0 0.0
2016-Aug-16 21:24N 32°44' W 117°12'0 0.0
2016-Aug-16 20:21N 32°44' W 117°12'0 0.0
2016-Aug-16 19:30N 32°44' W 117°12'0 0.0
2016-Aug-16 18:30N 32°44' W 117°12'0 0.0
2016-Aug-16 17:27N 32°44' W 117°12'0 0.0
2016-Aug-16 16:24N 32°44' W 117°12'0 0.0
2016-Aug-16 15:33N 32°44' W 117°12'0 0.0
2016-Aug-16 14:18N 32°44' W 117°12'0 0.0
2016-Aug-16 04:30N 32°44' W 117°12'0 0.0
2016-Aug-16 03:27N 32°44' W 117°12'0 0.0
2016-Aug-16 02:33N 32°44' W 117°12'0 0.0
2016-Aug-16 01:30N 32°44' W 117°12'0 0.0
2016-Aug-16 00:33N 32°44' W 117°12'0 0.0
2016-Aug-15 23:30N 32°44' W 117°12'0 0.0
2016-Aug-15 22:24N 32°44' W 117°12'0 0.0
2016-Aug-15 21:27N 32°44' W 117°12'0 0.0
2016-Aug-15 20:33N 32°44' W 117°12'0 0.0
2016-Aug-15 19:33N 32°44' W 117°12'0 0.0
2016-Aug-15 18:27N 32°44' W 117°12'0 0.0
2016-Aug-15 17:30N 32°44' W 117°12'0 0.0
2016-Aug-15 16:06N 32°44' W 117°12'0 0.0
2016-Aug-15 15:24N 32°44' W 117°12'0 0.0
2016-Aug-15 13:06N 32°44' W 117°12'0 0.0
2016-Aug-15 04:33N 32°44' W 117°12'0 0.0
2016-Aug-15 02:09N 32°44' W 117°12'0 0.0
2016-Aug-15 01:24N 32°44' W 117°12'0 0.0
2016-Aug-14 21:24N 32°44' W 117°12'0 0.0
2016-Aug-14 18:16N 32°44' W 117°12'0 0.0
2016-Aug-14 16:19N 32°44' W 117°12'0 0.0
2016-Aug-14 15:31N 32°44' W 117°12'0 0.0
2016-Aug-14 06:22N 32°44' W 117°12'0 0.0
2016-Aug-14 04:16N 32°44' W 117°12'0 0.0
2016-Aug-14 03:28N 32°44' W 117°12'0 0.0
2016-Aug-14 02:22N 32°44' W 117°12'0 0.0
2016-Aug-14 01:31N 32°44' W 117°12'9 4.4
2016-Aug-13 23:32N 32°39' W 117°21'1010.5
2016-Aug-13 22:33N 32°40' W 117°33'9 9.4
2016-Aug-13 21:33N 32°41' W 117°45'7 7.3
2016-Aug-13 20:33N 32°40' W 117°53'7 6.7
2016-Aug-13 19:32N 32°39' W 118°01'6 6.1
2016-Aug-13 18:33N 32°41' W 118°08'8 5.2
2016-Aug-13 17:06N 32°48' W 118°10'510.0
2016-Aug-13 16:33N 32°54' W 118°09'20 9.9
2016-Aug-13 14:32N 33°13' W 118°16'10 9.9
2016-Aug-13 13:30N 33°23' W 118°20'1 0.3
2016-Aug-13 09:25N 33°23' W 118°22'3 0.4
2016-Aug-13 02:24N 33°21' W 118°20'0 0.5
2016-Aug-13 01:20N 33°21' W 118°19'0 0.0
2016-Aug-13 00:16N 33°21' W 118°19'0 0.0
2016-Aug-12 17:33N 33°21' W 118°19'  

Dump ship's entire track history